Time;durP1;ratioP1;P1;durP2;ratioP2;P2;SDS_P1;SDS_P2;PMS_P1;PMS_P2;Temp;Humidity;BMP_temperature;BMP_pressure;BME280_temperature;BME280_humidity;BME280_pressure;Samples;Min_cycle;Max_cycle;Signal;HPM_P1;HPM_P2
2023/03/29 00:01:05;;;;;;;1.50;1.40;;;17.80;44.10;;;;;;5035797;28;20625;-56
2023/03/29 00:03:32;;;;;;;1.50;1.40;;;17.80;44.20;;;;;;5053284;28;20313;-57
2023/03/29 00:06:04;;;;;;;1.40;1.30;;;17.80;44.40;;;;;;5035645;28;20284;-56
2023/03/29 00:08:32;;;;;;;1.38;1.27;;;17.80;44.30;;;;;;5035227;28;20242;-56
2023/03/29 00:11:00;;;;;;;1.40;1.30;;;17.80;44.60;;;;;;5053055;28;20658;-55
2023/03/29 00:13:27;;;;;;;1.65;1.50;;;17.80;44.60;;;;;;5035184;28;20196;-56
2023/03/29 00:15:54;;;;;;;1.50;1.40;;;17.70;44.60;;;;;;5035383;28;20566;-55
2023/03/29 00:18:22;;;;;;;1.50;1.40;;;17.70;44.70;;;;;;5053198;28;20684;-55
2023/03/29 00:20:54;;;;;;;1.27;1.20;;;17.70;44.70;;;;;;5088185;22;20223;-79
2023/03/29 00:23:23;;;;;;;1.42;1.33;;;17.70;44.70;;;;;;5037864;28;20616;-79
2023/03/29 00:25:51;;;;;;;1.50;1.40;;;17.70;44.70;;;;;;5054923;28;20191;-82
2023/03/29 00:28:18;;;;;;;2.00;1.40;;;17.60;44.70;;;;;;5037138;28;20238;-82
2023/03/29 00:30:44;;;;;;;1.52;1.38;;;17.70;44.70;;;;;;5037005;28;20604;-80
2023/03/29 00:33:12;;;;;;;1.60;1.50;;;17.60;44.70;;;;;;5037528;28;20199;-80
2023/03/29 00:35:39;;;;;;;1.45;1.35;;;17.60;45.40;;;;;;5037847;28;20223;-80
2023/03/29 00:38:06;;;;;;;1.55;1.45;;;17.60;44.70;;;;;;5037673;28;20219;-80
2023/03/29 00:40:36;;;;;;;1.60;1.50;;;17.70;44.90;;;;;;5037963;28;20211;-80
2023/03/29 00:43:05;;;;;;;1.88;1.30;;;17.60;44.90;;;;;;5037877;28;20195;-80
2023/03/29 00:45:34;;;;;;;2.67;1.42;;;17.60;44.90;;;;;;5037899;28;20199;-80
2023/03/29 00:48:02;;;;;;;1.83;1.50;;;17.60;44.90;;;;;;5037897;28;20250;-81
2023/03/29 00:50:31;;;;;;;1.48;1.38;;;17.60;45.00;;;;;;5038022;28;20273;-82
2023/03/29 00:53:01;;;;;;;1.40;1.30;;;17.60;45.00;;;;;;5055469;28;20191;-80
2023/03/29 00:55:30;;;;;;;1.50;1.40;;;17.60;45.10;;;;;;5020634;28;20215;-82
2023/03/29 00:58:00;;;;;;;1.55;1.45;;;17.60;45.00;;;;;;5056024;28;20226;-82
2023/03/29 01:00:30;;;;;;;1.63;1.52;;;17.60;45.00;;;;;;5062380;28;20270;-80
2023/03/29 01:02:59;;;;;;;1.40;1.30;;;17.50;45.00;;;;;;5051614;28;20206;-80
2023/03/29 01:05:30;;;;;;;1.50;1.40;;;17.50;45.00;;;;;;5051120;28;20199;-80
2023/03/29 01:07:58;;;;;;;1.45;1.35;;;17.50;45.00;;;;;;5048013;28;20242;-80
2023/03/29 01:10:27;;;;;;;1.38;1.27;;;17.50;45.10;;;;;;5045489;28;20199;-80
2023/03/29 01:12:59;;;;;;;1.73;1.42;;;17.50;44.80;;;;;;5027599;28;20689;-80
2023/03/29 01:15:27;;;;;;;2.05;1.35;;;17.50;44.80;;;;;;5040687;28;20210;-81
2023/03/29 01:17:57;;;;;;;2.88;1.52;;;17.50;44.70;;;;;;5040699;28;20215;-80
2023/03/29 01:20:26;;;;;;;1.50;1.40;;;17.50;44.80;;;;;;5043197;28;20207;-82
2023/03/29 01:23:03;;;;;;;2.13;1.40;;;17.50;44.80;;;;;;5043383;28;20238;-80
2023/03/29 01:25:54;;;;;;;1.80;1.50;;;17.50;44.90;;;;;;5061604;28;20306;-80
2023/03/29 01:28:24;;;;;;;1.88;1.50;;;17.50;44.90;;;;;;5043477;28;20222;-82
2023/03/29 01:30:53;;;;;;;1.40;1.30;;;17.50;44.90;;;;;;5043866;28;20665;-82
2023/03/29 01:33:22;;;;;;;1.50;1.40;;;17.40;44.70;;;;;;5041799;28;20210;-80
2023/03/29 01:35:53;;;;;;;1.20;1.20;;;17.40;44.70;;;;;;5058519;28;20239;-80
2023/03/29 01:38:23;;;;;;;2.65;1.50;;;17.40;45.00;;;;;;5040195;28;20196;-80
2023/03/29 01:40:50;;;;;;;1.70;1.60;;;17.40;45.00;;;;;;5023658;28;20206;-80
2023/03/29 01:43:24;;;;;;;1.77;1.40;;;17.40;45.10;;;;;;5040490;28;20205;-80
2023/03/29 01:45:58;;;;;;;1.73;1.63;;;17.40;45.10;;;;;;5040393;28;20573;-79
2023/03/29 01:48:28;;;;;;;1.15;1.15;;;17.40;45.20;;;;;;5024167;28;20187;-79
2023/03/29 01:50:58;;;;;;;1.38;1.27;;;17.40;45.20;;;;;;5039980;28;20200;-79
2023/03/29 01:53:28;;;;;;;1.60;1.50;;;17.40;45.20;;;;;;5040074;28;20192;-79
2023/03/29 01:55:56;;;;;;;1.40;1.30;;;17.40;45.20;;;;;;5040366;28;20211;-79
2023/03/29 01:58:28;;;;;;;2.35;1.42;;;17.40;45.20;;;;;;5041287;28;20223;-80
2023/03/29 02:00:56;;;;;;;1.50;1.40;;;17.30;45.10;;;;;;5042295;28;20201;-80
2023/03/29 02:03:25;;;;;;;1.40;1.30;;;17.30;45.10;;;;;;5061014;28;20666;-80
2023/03/29 02:05:55;;;;;;;1.40;1.30;;;17.30;45.10;;;;;;5026844;28;20188;-80
2023/03/29 02:08:22;;;;;;;1.67;1.38;;;17.30;45.20;;;;;;5040000;28;20607;-80
2023/03/29 02:10:50;;;;;;;1.45;1.38;;;17.30;45.20;;;;;;5039841;28;20468;-79
2023/03/29 02:13:17;;;;;;;1.50;1.40;;;17.30;45.20;;;;;;5040613;28;20298;-79
2023/03/29 02:15:46;;;;;;;1.55;1.40;;;17.30;45.20;;;;;;5039814;28;20717;-80
2023/03/29 02:18:14;;;;;;;1.50;1.40;;;17.30;45.30;;;;;;5051051;28;20187;-80
2023/03/29 02:20:46;;;;;;;1.88;1.40;;;17.20;45.20;;;;;;5060789;28;20191;-80
2023/03/29 02:23:14;;;;;;;1.52;1.42;;;17.30;45.20;;;;;;5050773;28;20187;-79
2023/03/29 02:25:42;;;;;;;1.50;1.40;;;17.30;45.20;;;;;;5045279;28;20218;-81
2023/03/29 02:28:11;;;;;;;1.40;1.30;;;17.30;45.20;;;;;;5044061;28;20223;-81
2023/03/29 02:30:41;;;;;;;1.40;1.30;;;17.30;45.30;;;;;;5042487;28;20258;-81
2023/03/29 02:33:10;;;;;;;1.58;1.40;;;17.20;45.20;;;;;;5042112;28;20229;-80
2023/03/29 02:35:41;;;;;;;1.60;1.50;;;17.30;45.40;;;;;;5041521;28;20302;-80
2023/03/29 02:38:09;;;;;;;1.55;1.40;;;17.20;45.30;;;;;;5042356;28;20662;-81
2023/03/29 02:40:36;;;;;;;1.65;1.42;;;17.20;45.30;;;;;;5041133;28;20226;-81
2023/03/29 02:43:04;;;;;;;1.40;1.30;;;17.20;45.30;;;;;;5041101;28;20196;-81
2023/03/29 02:45:31;;;;;;;1.40;1.30;;;17.20;45.40;;;;;;5039376;28;20598;-80
2023/03/29 02:48:00;;;;;;;1.23;1.23;;;17.20;45.40;;;;;;5022991;28;20223;-81
2023/03/29 02:50:30;;;;;;;1.55;1.45;;;17.20;45.30;;;;;;5039732;28;20195;-81
2023/03/29 02:53:00;;;;;;;1.60;1.50;;;17.20;45.30;;;;;;5038847;28;20196;-81
2023/03/29 02:55:30;;;;;;;1.50;1.40;;;17.20;45.40;;;;;;5006323;28;20302;-81
2023/03/29 02:57:57;;;;;;;1.55;1.30;;;17.20;45.30;;;;;;5039268;28;20219;-81
2023/03/29 03:00:24;;;;;;;1.52;1.42;;;17.20;45.30;;;;;;5039511;28;20196;-81
2023/03/29 03:02:51;;;;;;;2.22;1.40;;;17.20;45.20;;;;;;5038033;28;20294;-81
2023/03/29 03:05:19;;;;;;;1.40;1.30;;;17.20;45.30;;;;;;5021968;28;20194;-81
2023/03/29 03:07:48;;;;;;;1.50;1.40;;;17.20;45.20;;;;;;5021739;28;20264;-81
2023/03/29 03:10:15;;;;;;;1.35;1.25;;;17.20;45.20;;;;;;5021766;28;20545;-81
2023/03/29 03:12:42;;;;;;;1.73;1.42;;;17.20;45.20;;;;;;5038203;28;20199;-81
2023/03/29 03:15:10;;;;;;;1.85;1.38;;;17.20;45.10;;;;;;5037972;28;20219;-81
2023/03/29 03:17:39;;;;;;;1.20;1.10;;;17.20;45.20;;;;;;5038024;28;20225;-80
2023/03/29 03:20:11;;;;;;;1.40;1.30;;;17.20;45.20;;;;;;5039046;28;20238;-81
2023/03/29 03:22:39;;;;;;;1.15;1.15;;;17.20;45.20;;;;;;5039020;28;20577;-81
2023/03/29 03:25:10;;;;;;;1.38;1.27;;;17.10;45.20;;;;;;5038374;28;20196;-81
2023/03/29 03:27:37;;;;;;;1.52;1.20;;;17.10;45.30;;;;;;5038519;28;20238;-81
2023/03/29 03:30:06;;;;;;;1.48;1.38;;;17.10;45.30;;;;;;5038011;28;20199;-80
2023/03/29 03:32:53;;;;;;;1.40;1.30;;;17.10;45.30;;;;;;5055357;28;20204;-80
2023/03/29 03:35:20;;;;;;;1.40;1.30;;;17.20;45.40;;;;;;5055653;28;20566;-80
2023/03/29 03:37:48;;;;;;;1.52;1.40;;;17.20;45.40;;;;;;5038124;28;20310;-80
2023/03/29 03:40:19;;;;;;;1.25;1.15;;;17.20;45.40;;;;;;5038042;28;20249;-81
2023/03/29 03:42:47;;;;;;;1.17;1.10;;;17.20;45.40;;;;;;5038186;28;20249;-80
2023/03/29 03:45:14;;;;;;;1.40;1.30;;;17.20;45.40;;;;;;5037801;28;20219;-80
2023/03/29 03:47:47;;;;;;;1.50;1.40;;;17.20;45.40;;;;;;5039700;28;20226;-80
2023/03/29 03:50:23;;;;;;;1.40;1.30;;;17.20;45.40;;;;;;5039301;28;20195;-80
2023/03/29 03:52:51;;;;;;;1.30;1.20;;;17.20;45.30;;;;;;5038685;28;20274;-80
2023/03/29 03:55:20;;;;;;;1.55;1.45;;;17.20;45.30;;;;;;5022523;28;20678;-80
2023/03/29 03:58:00;;;;;;;1.30;1.20;;;17.20;45.30;;;;;;5038416;28;20698;-80
2023/03/29 04:00:28;;;;;;;2.15;1.20;;;17.20;45.20;;;;;;5022747;28;20195;-81
2023/03/29 04:03:11;;;;;;;1.20;1.20;;;17.20;45.30;;;;;;5024765;28;20195;-81
2023/03/29 04:05:40;;;;;;;1.40;1.30;;;17.30;45.30;;;;;;5039302;28;20281;-81
2023/03/29 04:08:11;;;;;;;1.40;1.10;;;17.20;45.30;;;;;;5039755;28;20529;-81
2023/03/29 04:11:03;;;;;;;1.50;1.40;;;17.20;45.20;;;;;;5010504;28;20211;-82
2023/03/29 04:13:36;;;;;;;1.70;1.20;;;17.30;46.00;;;;;;5040302;28;20260;-81
2023/03/29 04:16:23;;;;;;;1.50;1.40;;;17.30;45.40;;;;;;5057600;28;20269;-82
2023/03/29 04:18:50;;;;;;;1.73;1.40;;;17.30;45.40;;;;;;5039039;28;20204;-82
2023/03/29 04:21:18;;;;;;;1.60;1.50;;;17.30;45.40;;;;;;5022892;28;20203;-82
2023/03/29 04:23:46;;;;;;;1.52;1.35;;;17.30;45.40;;;;;;5040095;28;20196;-81
2023/03/29 04:26:16;;;;;;;1.42;1.33;;;17.30;45.40;;;;;;5039926;28;20239;-81
2023/03/29 04:28:47;;;;;;;1.42;1.30;;;17.30;45.40;;;;;;5039570;28;20191;-84
2023/03/29 04:31:21;;;;;;;1.30;1.20;;;17.30;45.30;;;;;;5024098;28;20597;-83
2023/03/29 04:34:14;;;;;;;1.45;1.35;;;17.30;45.30;;;;;;5069474;28;20253;-83
2023/03/29 04:36:42;;;;;;;1.35;1.25;;;17.30;45.30;;;;;;5055761;28;20408;-82
2023/03/29 04:39:17;;;;;;;1.42;1.33;;;17.30;45.40;;;;;;5046489;28;20226;-82
2023/03/29 04:41:47;;;;;;;1.25;1.15;;;17.30;45.50;;;;;;5025192;28;20191;-84
2023/03/29 04:44:20;;;;;;;1.30;1.20;;;17.40;45.40;;;;;;5040426;28;20619;-84
2023/03/29 04:46:47;;;;;;;3.00;1.17;;;17.40;45.40;;;;;;5023760;28;20261;-84
2023/03/29 04:49:33;;;;;;;1.58;1.30;;;17.40;45.40;;;;;;5058423;28;20206;-83
2023/03/29 04:52:01;;;;;;;3.53;1.30;;;17.50;45.50;;;;;;5043065;28;20192;-83
2023/03/29 04:54:30;;;;;;;1.90;1.20;;;17.40;45.40;;;;;;5041916;28;20202;-82
2023/03/29 04:57:17;;;;;;;1.85;1.30;;;17.40;45.40;;;;;;5043564;28;20215;-83
2023/03/29 04:59:55;;;;;;;1.10;1.10;;;17.50;45.60;;;;;;5040302;28;20282;-84
2023/03/29 05:02:41;;;;;;;1.45;1.35;;;17.40;45.70;;;;;;5055030;28;20716;-83
2023/03/29 05:05:09;;;;;;;1.30;1.20;;;17.40;46.00;;;;;;5036676;28;20294;-83
2023/03/29 05:07:36;;;;;;;1.30;1.20;;;17.40;45.90;;;;;;5038064;28;20219;-83
2023/03/29 05:10:04;;;;;;;4.97;1.50;;;17.50;46.00;;;;;;5037458;28;20195;-83
2023/03/29 05:12:33;;;;;;;1.27;1.17;;;17.50;46.10;;;;;;5021179;28;20199;-83
2023/03/29 05:15:01;;;;;;;2.00;1.20;;;17.50;45.90;;;;;;5037456;28;20223;-82
2023/03/29 05:17:30;;;;;;;1.15;1.10;;;17.50;46.00;;;;;;5040552;28;20629;-82
2023/03/29 05:20:08;;;;;;;1.48;1.38;;;17.50;45.90;;;;;;5038279;28;20677;-84
2023/03/29 05:22:37;;;;;;;1.65;1.15;;;17.50;46.00;;;;;;5037885;28;20215;-85
2023/03/29 05:25:07;;;;;;;1.23;1.13;;;17.50;46.00;;;;;;5037740;28;20249;-84
2023/03/29 05:27:36;;;;;;;1.52;1.30;;;17.50;46.00;;;;;;5037377;28;20709;-84
2023/03/29 05:30:09;;;;;;;1.30;1.13;;;17.50;45.80;;;;;;5036863;28;20266;-84
2023/03/29 05:32:45;;;;;;;1.20;1.10;;;17.50;45.80;;;;;;5037776;28;20274;-85
2023/03/29 05:35:15;;;;;;;1.38;1.23;;;17.50;45.80;;;;;;5037204;28;20211;-85
2023/03/29 05:37:46;;;;;;;1.52;1.10;;;17.60;45.90;;;;;;5038052;28;20215;-84
2023/03/29 05:40:13;;;;;;;2.03;1.38;;;17.60;45.90;;;;;;5038493;28;20210;-84
2023/03/29 05:43:02;;;;;;;1.50;1.40;;;17.60;45.80;;;;;;5041610;28;20669;-84
2023/03/29 05:45:31;;;;;;;1.60;1.48;;;17.60;45.80;;;;;;5037543;28;20188;-82
2023/03/29 05:47:58;;;;;;;1.58;1.40;;;17.60;45.70;;;;;;5038249;28;20702;-82
2023/03/29 05:50:25;;;;;;;1.63;1.40;;;17.60;45.50;;;;;;5039226;28;20549;-83
2023/03/29 05:52:52;;;;;;;1.40;1.30;;;17.60;45.50;;;;;;5042045;28;20591;-82
2023/03/29 05:55:20;;;;;;;1.40;1.30;;;17.60;45.50;;;;;;5028140;28;20195;-82
2023/03/29 05:57:47;;;;;;;1.60;1.45;;;17.70;45.30;;;;;;5028064;28;20753;-83
2023/03/29 06:00:22;;;;;;;1.30;1.20;;;17.70;45.40;;;;;;5043910;28;20195;-83
2023/03/29 06:02:55;;;;;;;1.48;1.38;;;17.80;45.40;;;;;;5028159;28;20191;-83
2023/03/29 06:05:24;;;;;;;1.58;1.48;;;17.90;45.10;;;;;;5043620;28;20203;-82
2023/03/29 06:08:00;;;;;;;1.50;1.40;;;18.10;45.00;;;;;;5028431;28;20620;-82
2023/03/29 06:10:52;;;;;;;2.45;1.50;;;18.10;44.60;;;;;;5044151;28;20202;-82
2023/03/29 06:13:40;;;;;;;2.22;1.50;;;18.10;44.40;;;;;;5030257;28;20225;-82
2023/03/29 06:16:10;;;;;;;1.30;1.20;;;18.20;44.40;;;;;;5043625;28;20241;-82
2023/03/29 06:18:38;;;;;;;1.95;1.35;;;18.20;44.40;;;;;;5044324;28;20206;-82
2023/03/29 06:21:08;;;;;;;1.30;1.20;;;18.20;44.30;;;;;;5044046;28;20209;-82
2023/03/29 06:23:35;;;;;;;1.85;1.30;;;18.30;44.40;;;;;;5043681;28;20215;-82
2023/03/29 06:26:02;;;;;;;1.52;1.42;;;18.30;44.20;;;;;;5044975;28;20218;-82
2023/03/29 06:28:29;;;;;;;1.45;1.35;;;18.30;44.30;;;;;;5052483;28;20199;-82
2023/03/29 06:31:00;;;;;;;4.03;1.40;;;18.40;44.50;;;;;;5055415;28;20200;-81
2023/03/29 06:33:31;;;;;;;1.50;1.40;;;18.40;44.10;;;;;;5054425;28;20191;-82
2023/03/29 06:36:04;;;;;;;1.60;1.50;;;18.40;44.10;;;;;;5052815;28;20222;-82
2023/03/29 06:38:34;;;;;;;1.50;1.30;;;18.40;43.80;;;;;;5044001;28;20226;-82
2023/03/29 06:41:16;;;;;;;1.98;1.55;;;18.40;43.70;;;;;;5044413;28;20313;-82
2023/03/29 06:43:59;;;;;;;1.50;1.40;;;18.50;44.00;;;;;;5044178;28;20249;-83
2023/03/29 06:46:32;;;;;;;1.60;1.50;;;18.50;43.90;;;;;;5044417;28;20215;-82
2023/03/29 06:49:07;;;;;;;1.63;1.20;;;18.50;44.00;;;;;;5044917;28;20282;-83
2023/03/29 06:51:55;;;;;;;3.95;1.48;;;18.50;44.00;;;;;;5021503;28;20204;-82
2023/03/29 06:54:23;;;;;;;1.83;1.20;;;18.50;44.00;;;;;;5050472;28;20286;-80
2023/03/29 06:56:59;;;;;;;1.15;1.10;;;18.50;43.80;;;;;;5055373;28;20292;-80
2023/03/29 06:59:28;;;;;;;2.05;1.10;;;18.60;43.90;;;;;;5055451;28;20195;-81
2023/03/29 07:01:58;;;;;;;2.10;1.20;;;18.60;43.90;;;;;;5055414;28;20199;-80
2023/03/29 07:04:41;;;;;;;2.00;1.38;;;18.60;43.90;;;;;;5040860;28;20297;-80
2023/03/29 07:07:20;;;;;;;1.40;1.30;;;18.60;43.90;;;;;;5055184;28;20233;-81
2023/03/29 07:09:54;;;;;;;2.20;1.40;;;18.60;43.70;;;;;;5053551;28;20259;-80
2023/03/29 07:12:22;;;;;;;1.48;1.38;;;18.60;43.70;;;;;;5071198;28;20207;-80
2023/03/29 07:14:50;;;;;;;1.50;1.40;;;18.70;43.60;;;;;;5055219;28;20200;-80
2023/03/29 07:17:17;;;;;;;1.77;1.20;;;18.70;43.70;;;;;;5046860;28;20686;-82
2023/03/29 07:19:47;;;;;;;2.17;1.30;;;18.70;43.60;;;;;;5044661;28;20200;-82
2023/03/29 07:22:45;;;;;;;1.98;1.25;;;18.70;43.30;;;;;;5049666;28;20207;-82
2023/03/29 07:25:15;;;;;;;1.58;1.35;;;18.70;43.50;;;;;;5043057;28;20203;-82
2023/03/29 07:27:43;;;;;;;1.35;1.25;;;18.70;43.20;;;;;;5039529;28;20215;-81
2023/03/29 07:30:11;;;;;;;1.40;1.30;;;18.70;43.10;;;;;;5038786;28;20598;-81
2023/03/29 07:32:39;;;;;;;1.00;1.00;;;18.80;43.10;;;;;;5039171;28;20222;-81
2023/03/29 07:35:32;;;;;;;1.40;1.10;;;18.80;43.10;;;;;;5040927;28;20282;-81
2023/03/29 07:38:01;;;;;;;2.15;1.20;;;18.70;42.90;;;;;;5025737;28;20267;-81
2023/03/29 07:40:29;;;;;;;1.85;1.20;;;18.80;43.00;;;;;;5041062;28;20198;-82
2023/03/29 07:42:57;;;;;;;2.10;1.27;;;18.80;42.90;;;;;;5059198;28;20745;-82
2023/03/29 07:45:28;;;;;;;2.38;1.20;;;18.80;43.00;;;;;;5041837;28;20661;-82
2023/03/29 07:48:04;;;;;;;1.25;1.20;;;18.80;42.70;;;;;;5041700;28;20214;-82
2023/03/29 07:50:50;;;;;;;1.30;1.20;;;18.80;42.90;;;;;;5041578;28;20222;-82
2023/03/29 07:53:20;;;;;;;1.30;1.20;;;18.80;42.90;;;;;;5041632;28;20226;-82
2023/03/29 07:55:48;;;;;;;1.10;1.10;;;18.90;42.70;;;;;;5040881;28;20290;-82
2023/03/29 07:58:36;;;;;;;2.15;1.40;;;18.90;42.90;;;;;;5043811;28;20724;-82
2023/03/29 08:01:04;;;;;;;1.35;1.25;;;18.90;42.70;;;;;;5040975;28;20206;-81
2023/03/29 08:03:52;;;;;;;1.10;1.10;;;18.90;42.70;;;;;;5044183;28;20223;-83
2023/03/29 08:06:26;;;;;;;1.33;1.23;;;18.90;42.70;;;;;;5024832;28;20596;-82
2023/03/29 08:08:54;;;;;;;1.55;1.45;;;19.00;42.70;;;;;;5040491;28;20196;-82
2023/03/29 08:11:23;;;;;;;1.35;1.02;;;18.90;42.40;;;;;;5040561;28;20202;-82
2023/03/29 08:14:00;;;;;;;1.40;1.30;;;19.00;42.50;;;;;;5040438;28;20199;-82
2023/03/29 08:16:46;;;;;;;1.60;1.20;;;18.80;42.40;;;;;;5056886;28;20361;-82
2023/03/29 08:19:15;;;;;;;1.08;1.05;;;19.00;42.40;;;;;;5039921;28;20252;-82
2023/03/29 08:22:02;;;;;;;1.30;1.20;;;18.90;42.30;;;;;;5037162;28;20196;-82
2023/03/29 08:24:50;;;;;;;1.48;1.38;;;18.90;42.50;;;;;;5042277;28;20191;-83
2023/03/29 08:27:18;;;;;;;1.10;1.10;;;18.90;42.40;;;;;;5037027;28;20218;-83
2023/03/29 08:29:44;;;;;;;1.85;1.20;;;19.00;42.40;;;;;;5036932;28;20687;-82
2023/03/29 08:32:12;;;;;;;1.40;1.30;;;19.10;42.20;;;;;;5038670;28;20261;-81
2023/03/29 08:34:39;;;;;;;1.70;1.20;;;19.10;42.10;;;;;;5038744;28;20206;-81
2023/03/29 08:37:23;;;;;;;1.27;1.02;;;19.10;42.30;;;;;;5041143;28;20219;-83
2023/03/29 08:39:53;;;;;;;2.25;1.15;;;19.20;42.00;;;;;;5041109;28;20199;-83
2023/03/29 08:42:56;;;;;;;1.40;1.30;;;19.10;42.00;;;;;;5058125;28;20264;-81
2023/03/29 08:45:34;;;;;;;1.30;1.20;;;19.20;42.00;;;;;;5009712;28;20249;-80
2023/03/29 08:48:08;;;;;;;1.30;1.20;;;19.20;42.00;;;;;;5039740;28;20215;-81
2023/03/29 08:50:38;;;;;;;1.30;1.20;;;19.20;41.70;;;;;;5039458;28;20287;-82
2023/03/29 08:53:08;;;;;;;1.20;1.10;;;19.20;41.80;;;;;;5039218;28;20248;-82
2023/03/29 08:55:56;;;;;;;1.35;1.00;;;19.20;42.00;;;;;;5058604;28;20207;-82
2023/03/29 08:58:46;;;;;;;1.40;1.30;;;19.30;42.00;;;;;;5057945;28;20557;-82
2023/03/29 09:01:14;;;;;;;1.65;1.33;;;19.30;41.60;;;;;;5040227;28;20222;-82
2023/03/29 09:03:57;;;;;;;1.42;1.33;;;19.30;41.80;;;;;;5039579;28;20191;-83
2023/03/29 09:06:36;;;;;;;1.20;1.10;;;19.30;41.80;;;;;;5040061;28;20219;-82
2023/03/29 09:09:17;;;;;;;2.08;1.10;;;19.40;41.70;;;;;;5039737;28;20207;-82
2023/03/29 09:12:05;;;;;;;1.50;1.40;;;19.30;41.60;;;;;;5024727;28;20196;-82
2023/03/29 09:14:50;;;;;;;2.25;1.50;;;19.40;41.60;;;;;;5040787;28;20206;-82
2023/03/29 09:17:23;;;;;;;1.60;1.50;;;19.40;42.30;;;;;;5040160;28;20222;-82
2023/03/29 09:19:54;;;;;;;1.55;1.45;;;19.40;41.70;;;;;;5039295;28;20199;-82
2023/03/29 09:22:23;;;;;;;1.30;1.20;;;19.40;41.70;;;;;;5040408;28;20260;-82
2023/03/29 09:25:00;;;;;;;1.40;1.15;;;19.50;41.50;;;;;;5040117;28;20196;-82
2023/03/29 09:27:32;;;;;;;2.15;1.20;;;19.50;41.70;;;;;;5037660;28;20211;-82
2023/03/29 09:30:16;;;;;;;1.38;1.27;;;19.50;41.80;;;;;;5044076;28;20191;-81
2023/03/29 09:32:54;;;;;;;1.30;1.20;;;19.60;41.60;;;;;;5029468;28;20264;-81
2023/03/29 09:35:29;;;;;;;1.50;1.40;;;19.60;41.60;;;;;;5044490;28;20219;-81
2023/03/29 09:37:57;;;;;;;1.50;1.40;;;19.60;41.20;;;;;;5045343;28;20216;-81
2023/03/29 09:40:27;;;;;;;1.20;1.10;;;19.60;41.30;;;;;;5045649;28;20206;-81
2023/03/29 09:43:09;;;;;;;1.25;1.15;;;19.60;41.40;;;;;;5045662;28;20199;-81
2023/03/29 09:45:37;;;;;;;1.35;1.25;;;19.60;41.40;;;;;;5043264;28;20286;-82
2023/03/29 09:48:06;;;;;;;1.83;1.23;;;19.60;41.60;;;;;;5042133;28;20215;-82
2023/03/29 09:50:36;;;;;;;1.50;1.23;;;19.60;41.60;;;;;;5042703;28;20195;-81
2023/03/29 09:53:07;;;;;;;1.63;1.30;;;19.60;41.20;;;;;;5043717;28;20194;-82
2023/03/29 09:55:39;;;;;;;2.80;1.30;;;19.70;41.00;;;;;;5026559;28;20187;-81
2023/03/29 09:58:22;;;;;;;1.50;1.40;;;19.70;41.40;;;;;;5042209;28;20203;-81
2023/03/29 10:00:51;;;;;;;1.48;1.38;;;19.70;41.40;;;;;;5042107;28;20599;-81
2023/03/29 10:03:20;;;;;;;1.48;1.38;;;19.80;41.70;;;;;;5042012;28;20195;-81
2023/03/29 10:05:55;;;;;;;1.10;1.10;;;19.80;41.50;;;;;;5044990;28;20532;-81
2023/03/29 10:08:27;;;;;;;1.40;1.30;;;19.80;41.30;;;;;;5042997;28;20293;-81
2023/03/29 10:10:58;;;;;;;1.48;1.38;;;19.90;41.20;;;;;;5043339;28;20207;-81
2023/03/29 10:13:28;;;;;;;1.95;1.20;;;20.00;41.20;;;;;;5042603;28;20196;-82
2023/03/29 10:16:02;;;;;;;1.10;1.10;;;20.00;41.60;;;;;;5041480;28;20666;-82
2023/03/29 10:18:30;;;;;;;1.50;1.30;;;20.10;41.30;;;;;;5042571;28;20569;-82
2023/03/29 10:21:01;;;;;;;1.33;1.23;;;20.10;41.30;;;;;;5041544;28;20333;-82
2023/03/29 10:23:32;;;;;;;1.70;1.30;;;20.20;41.40;;;;;;5040760;28;20646;-81
2023/03/29 10:26:03;;;;;;;1.10;1.00;;;20.30;41.20;;;;;;5039974;28;20267;-82
2023/03/29 10:28:30;;;;;;;1.85;1.27;;;20.30;41.40;;;;;;5040282;28;20191;-82
2023/03/29 10:30:58;;;;;;;1.52;1.23;;;20.40;41.00;;;;;;5023611;28;20232;-82
2023/03/29 10:33:28;;;;;;;1.20;1.20;;;20.40;41.00;;;;;;5040333;28;20245;-82
2023/03/29 10:35:56;;;;;;;1.65;1.00;;;20.40;41.20;;;;;;5023979;28;20302;-82
2023/03/29 10:38:24;;;;;;;1.30;1.20;;;20.40;41.10;;;;;;5039009;28;20612;-82
2023/03/29 10:40:52;;;;;;;1.15;1.15;;;20.40;41.00;;;;;;5057085;28;20191;-82
2023/03/29 10:43:23;;;;;;;1.55;1.20;;;20.50;41.20;;;;;;5039706;28;20203;-81
2023/03/29 10:45:50;;;;;;;1.38;1.27;;;20.50;41.20;;;;;;5040319;28;20234;-82
2023/03/29 10:48:19;;;;;;;1.48;1.35;;;20.50;41.10;;;;;;5039065;28;20211;-82
2023/03/29 10:50:49;;;;;;;1.20;1.10;;;20.60;41.10;;;;;;5039210;28;20207;-82
2023/03/29 10:53:19;;;;;;;1.30;1.20;;;20.60;41.10;;;;;;5039257;28;20324;-82
2023/03/29 10:55:49;;;;;;;1.10;1.10;;;20.70;41.00;;;;;;5040092;28;20187;-82
2023/03/29 10:58:24;;;;;;;1.42;1.33;;;20.80;40.80;;;;;;5022614;28;20226;-82
2023/03/29 11:00:54;;;;;;;1.77;1.10;;;20.90;40.60;;;;;;5038985;28;20628;-82
2023/03/29 11:03:42;;;;;;;1.05;1.00;;;20.90;40.70;;;;;;5038681;28;20195;-82
2023/03/29 11:06:13;;;;;;;1.10;1.00;;;21.00;40.80;;;;;;5037896;28;20259;-82
2023/03/29 11:08:46;;;;;;;1.20;1.10;;;21.10;40.70;;;;;;5038369;28;20245;-82
2023/03/29 11:11:20;;;;;;;1.17;1.08;;;21.10;41.20;;;;;;5038016;28;20633;-82
2023/03/29 11:13:52;;;;;;;1.20;1.10;;;21.10;40.60;;;;;;5037887;28;20681;-81
2023/03/29 11:16:24;;;;;;;1.23;1.13;;;21.20;40.60;;;;;;5038197;28;20313;-81
2023/03/29 11:19:08;;;;;;;1.30;1.08;;;21.30;40.60;;;;;;5022011;28;20211;-81
2023/03/29 11:21:39;;;;;;;1.15;1.10;;;21.30;40.60;;;;;;5038063;28;20261;-82
2023/03/29 11:24:26;;;;;;;1.20;1.10;;;21.30;40.50;;;;;;5022172;28;20310;-82
2023/03/29 11:26:59;;;;;;;1.48;1.25;;;21.30;40.40;;;;;;5038193;28;20219;-82
2023/03/29 11:29:28;;;;;;;1.05;1.05;;;21.40;40.50;;;;;;5038769;28;20199;-82
2023/03/29 11:31:59;;;;;;;1.10;1.10;;;21.40;40.40;;;;;;5037843;28;20210;-82
2023/03/29 11:34:28;;;;;;;1.17;1.10;;;21.40;40.30;;;;;;5038385;28;20196;-82
2023/03/29 11:36:58;;;;;;;0.90;0.90;;;21.40;40.30;;;;;;5037519;28;20219;-82
2023/03/29 11:39:31;;;;;;;1.08;1.05;;;21.40;40.20;;;;;;5037749;28;20199;-82
2023/03/29 11:42:02;;;;;;;1.60;1.10;;;21.50;40.40;;;;;;5037489;28;20191;-82
2023/03/29 11:44:30;;;;;;;0.98;0.98;;;21.50;40.40;;;;;;5038698;28;20199;-82
2023/03/29 11:46:59;;;;;;;1.20;1.10;;;21.50;40.20;;;;;;5055274;28;20301;-82
2023/03/29 11:49:29;;;;;;;1.08;1.02;;;21.50;40.20;;;;;;5037627;28;20249;-82
2023/03/29 11:51:58;;;;;;;1.00;1.00;;;21.50;40.30;;;;;;5037641;28;20195;-82
2023/03/29 11:54:27;;;;;;;1.13;1.02;;;21.50;40.30;;;;;;5037719;28;20200;-82
2023/03/29 11:56:56;;;;;;;1.38;1.27;;;21.50;40.20;;;;;;5038947;28;20216;-82
2023/03/29 11:59:24;;;;;;;1.13;0.95;;;21.50;40.20;;;;;;5039243;28;20239;-82
2023/03/29 12:01:55;;;;;;;1.20;1.10;;;21.50;40.20;;;;;;5039199;28;20654;-82
2023/03/29 12:04:25;;;;;;;1.20;1.10;;;21.50;40.90;;;;;;5038003;28;20646;-82
2023/03/29 12:06:55;;;;;;;1.00;0.90;;;21.50;40.20;;;;;;5021621;28;20566;-82
2023/03/29 12:09:25;;;;;;;1.00;1.00;;;21.50;40.20;;;;;;5038712;28;20191;-82
2023/03/29 12:11:56;;;;;;;1.00;1.00;;;21.50;40.10;;;;;;5055618;28;20172;-82
2023/03/29 12:14:25;;;;;;;1.02;1.02;;;21.50;40.10;;;;;;5039249;28;20191;-82
2023/03/29 12:16:56;;;;;;;1.05;0.95;;;21.60;40.10;;;;;;5038968;28;20744;-82
2023/03/29 12:19:26;;;;;;;0.90;0.90;;;21.60;40.20;;;;;;5039887;28;20215;-82
2023/03/29 12:21:54;;;;;;;0.90;0.90;;;21.60;40.10;;;;;;5039215;28;20231;-82
2023/03/29 12:24:22;;;;;;;1.23;1.10;;;21.60;40.00;;;;;;5038290;28;20199;-82
2023/03/29 12:27:00;;;;;;;1.45;1.35;;;21.60;40.00;;;;;;5037626;28;20681;-82
2023/03/29 12:29:44;;;;;;;1.00;1.00;;;21.70;40.00;;;;;;5037721;28;20645;-82
2023/03/29 12:32:27;;;;;;;1.05;1.00;;;21.70;40.10;;;;;;5037836;28;20195;-82
2023/03/29 12:35:20;;;;;;;1.08;1.08;;;21.70;40.00;;;;;;5037504;28;20195;-82
2023/03/29 12:38:10;;;;;;;0.90;0.90;;;21.70;39.90;;;;;;5055343;28;20269;-82
2023/03/29 12:40:59;;;;;;;0.93;0.93;;;21.70;39.90;;;;;;5041746;28;20218;-82
2023/03/29 12:43:44;;;;;;;1.13;1.10;;;21.80;40.00;;;;;;5055638;28;20194;-82
2023/03/29 12:46:18;;;;;;;1.13;1.10;;;21.70;39.90;;;;;;5055744;28;20230;-82
2023/03/29 12:48:49;;;;;;;1.00;1.00;;;21.80;40.00;;;;;;5037196;28;20241;-82
2023/03/29 12:51:17;;;;;;;1.10;1.00;;;21.70;39.90;;;;;;5038177;28;20188;-82
2023/03/29 12:53:45;;;;;;;2.78;1.15;;;21.80;39.90;;;;;;5036996;28;20640;-82
2023/03/29 12:56:14;;;;;;;3.28;1.17;;;21.80;40.10;;;;;;5037447;28;20223;-82
2023/03/29 12:58:48;;;;;;;1.67;1.20;;;21.70;40.70;;;;;;5037947;28;20211;-82
2023/03/29 13:01:23;;;;;;;3.95;1.27;;;21.70;41.10;;;;;;5021839;28;20640;-82
2023/03/29 13:03:52;;;;;;;2.53;1.20;;;21.70;41.50;;;;;;5041478;28;20191;-82
2023/03/29 13:06:30;;;;;;;2.22;1.45;;;21.70;41.50;;;;;;5041136;28;20215;-82
2023/03/29 13:08:59;;;;;;;3.40;1.23;;;21.70;41.50;;;;;;5041588;28;20195;-82
2023/03/29 13:11:28;;;;;;;4.13;1.15;;;21.70;41.50;;;;;;5055134;28;20211;-82
2023/03/29 13:13:54;;;;;;;2.42;1.23;;;21.80;41.20;;;;;;5057951;28;20268;-82